KLKV/LKV METAR and TAF weather

Enter ICAO airport designator
Station Type Date Time Source
KLKV METAR 2020/01/24 02:53 UTC NOAA

KLKV 240253Z AUTO 15007G14KT 030V210 10SM -RA OVC032 03/01 A3008 RMK AO2 UPB44E53RAB53 SLP203 P0000 60000 T00330011 58019


Station Type Date Time Source
KLKV Decoded METAR 2020/01/24 02:53 UTC NOAA

Lakeview, Lake County Airport, OR, United States (KLKV) 42-10N 120-24W
Jan 23, 2020 - 09:53 PM EST / 2020.01.24 0253 UTC
Wind: from the SSE (150 degrees) at 8 MPH (7 KT) gusting to 16 MPH (14 KT) (direction variable):0
Visibility: 10 mile(s):0
Sky conditions: overcast
Weather: light rain
Precipitation last hour: A trace
Temperature: 37.9 F (3.3 C)
Dew Point: 34.0 F (1.1 C)
Relative Humidity: 85%
Pressure (altimeter): 30.08 in. Hg (1018 hPa)
Pressure tendency: 0.06 inches (1.9 hPa) lower than three hours ago
ob: KLKV 240253Z AUTO 15007G14KT 030V210 10SM -RA OVC032 03/01 A3008 RMK AO2 UPB44E53RAB53 SLP203 P0000 60000 T00330011 58019
cycle: 3

Station Type Date Time Source
KLKV TAF UTC NOAA

Error!

Example: see airport list